Terminal Aerodrome Forecast
Issued by NWS Sioux Falls, SD

Home | Current Version | Previous Version | Graphics & Text | Print | Product List | Glossary Off
Versions: 1 2 3 4 5 6 7 8 9 10 11 12 13 14 15 16 17

000
FTUS43 KFSD 141404 AAC
TAFHON
TAF AMD
KHON 141404Z 1414/1512 32005KT 1/4SM FG VV002
     FM141500 36006KT P6SM SCT010
     FM141800 03007KT P6SM SCT025
     FM150200 08006KT P6SM SCT200
     FM150800 11006KT P6SM BKN200=

USA.gov is the U.S. government's official web portal to all federal, state and local government web resources and services.